Time;durP1;ratioP1;P1;durP2;ratioP2;P2;SDS_P1;SDS_P2;PMS_P1;PMS_P2;Temp;Humidity;BMP_temperature;BMP_pressure;BME280_temperature;BME280_humidity;BME280_pressure;Samples;Min_cycle;Max_cycle;Signal;HPM_P1;HPM_P2
2023/05/14 00:01:48;;;;;;;1999.90;999.90;;;;;;;;;;4954713;29;20395;-69
2023/05/14 00:04:14;;;;;;;1999.90;999.90;;;;;;;;;;4954004;29;20075;-69
2023/05/14 00:06:40;;;;;;;1999.90;999.90;;;;;;;;;;4953450;29;20037;-69
2023/05/14 00:09:06;;;;;;;1999.90;999.90;;;;;;;;;;4953386;29;20063;-68
2023/05/14 00:11:32;;;;;;;1999.90;999.90;;;;;;;;;;4954438;29;20058;-69
2023/05/14 00:13:58;;;;;;;1999.90;999.90;;;;;;;;;;4954321;29;20082;-69
2023/05/14 00:16:24;;;;;;;1999.90;999.90;;;;;;;;;;4954154;29;20094;-69
2023/05/14 00:18:50;;;;;;;1999.90;999.90;;;;;;;;;;4954283;29;20035;-69
2023/05/14 00:21:16;;;;;;;1999.90;999.90;;;;;;;;;;4954282;29;20140;-69
2023/05/14 00:23:42;;;;;;;1999.90;999.90;;;;;;;;;;4953874;29;20035;-68
2023/05/14 00:26:08;;;;;;;1999.90;999.90;;;;;;;;;;4953995;29;20028;-68
2023/05/14 00:28:34;;;;;;;1999.90;999.90;;;;;;;;;;4953880;29;20031;-69
2023/05/14 00:31:00;;;;;;;1999.90;999.90;;;;;;;;;;4953759;29;20031;-69
2023/05/14 00:33:26;;;;;;;1999.90;999.90;;;;;;;;;;4953866;28;20035;-69
2023/05/14 00:35:52;;;;;;;1999.90;999.90;;;;;;;;;;4953729;29;20051;-69
2023/05/14 00:38:19;;;;;;;1999.90;999.90;;;;;;;;;;4953801;29;20085;-68
2023/05/14 00:40:50;;;;;;;1999.90;999.90;;;;;;;;;;4953703;29;20015;-69
2023/05/14 00:43:20;;;;;;;1999.90;999.90;;;;;;;;;;4953498;29;20159;-69
2023/05/14 00:45:47;;;;;;;1999.90;999.90;;;;;;;;;;4953733;29;20027;-69
2023/05/14 00:48:13;;;;;;;1999.90;999.90;;;;;;;;;;4953860;29;20502;-68
2023/05/14 00:50:39;;;;;;;1999.90;999.90;;;;;;;;;;4953773;29;20028;-68
2023/05/14 00:53:09;;;;;;;1999.90;999.90;;;;;;;;;;4953507;29;20037;-69
2023/05/14 00:55:38;;;;;;;1999.90;999.90;;;;;;;;;;4953288;29;20078;-69
2023/05/14 00:58:09;;;;;;;1999.90;999.90;;;;;;;;;;4953259;29;20110;-69
2023/05/14 01:00:35;;;;;;;1999.90;999.90;;;;;;;;;;4953504;29;20517;-68
2023/05/14 01:03:01;;;;;;;1999.90;999.90;;;;;;;;;;4952047;29;20427;-69
2023/05/14 01:05:36;;;;;;;1999.90;999.90;;;;;;;;;;4952351;29;20083;-69
2023/05/14 01:08:07;;;;;;;1999.90;999.90;;;;;;;;;;4953249;29;20074;-69
2023/05/14 01:10:38;;;;;;;1999.90;999.90;;;;;;;;;;4953575;29;20030;-69
2023/05/14 01:13:04;;;;;;;1999.90;999.90;;;;;;;;;;4953506;29;20102;-69
2023/05/14 01:15:31;;;;;;;1999.90;999.90;;;;;;;;;;4952944;29;20031;-69
2023/05/14 01:17:59;;;;;;;1999.90;999.90;;;;;;;;;;4953169;29;20035;-69
2023/05/14 01:20:26;;;;;;;1999.90;999.90;;;;;;;;;;4953209;29;20517;-69
2023/05/14 01:22:52;;;;;;;1999.90;999.90;;;;;;;;;;4953229;29;20031;-69
2023/05/14 01:25:18;;;;;;;1999.90;999.90;;;;;;;;;;4953218;29;20023;-69
2023/05/14 01:27:51;;;;;;;1999.90;999.90;;;;;;;;;;4953000;29;20039;-69
2023/05/14 01:30:23;;;;;;;1999.90;999.90;;;;;;;;;;4953707;28;20036;-68
2023/05/14 01:32:53;;;;;;;1999.90;999.90;;;;;;;;;;4971950;28;20031;-69
2023/05/14 01:35:20;;;;;;;1999.90;999.90;;;;;;;;;;4972030;28;20034;-69
2023/05/14 01:37:47;;;;;;;1999.90;999.90;;;;;;;;;;4971966;28;20134;-69
2023/05/14 01:40:13;;;;;;;1999.90;999.90;;;;;;;;;;4972185;28;20392;-69
2023/05/14 01:42:39;;;;;;;1999.90;999.90;;;;;;;;;;4972105;28;20028;-69
2023/05/14 01:45:06;;;;;;;1999.90;999.90;;;;;;;;;;4971418;28;20435;-69
2023/05/14 01:47:32;;;;;;;1999.90;999.90;;;;;;;;;;4971773;28;20042;-69
2023/05/14 01:49:58;;;;;;;1999.90;999.90;;;;;;;;;;4971934;28;20023;-69
2023/05/14 01:52:24;;;;;;;1999.90;999.90;;;;;;;;;;4972143;28;20038;-69
2023/05/14 01:54:50;;;;;;;1999.90;999.90;;;;;;;;;;4971853;28;20085;-69
2023/05/14 01:57:16;;;;;;;1999.90;999.90;;;;;;;;;;4971808;28;20490;-69
2023/05/14 01:59:42;;;;;;;1999.90;999.90;;;;;;;;;;4971986;28;20031;-69
2023/05/14 02:02:08;;;;;;;1999.90;999.90;;;;;;;;;;4973176;28;20493;-69
2023/05/14 02:04:34;;;;;;;1999.90;999.90;;;;;;;;;;4972126;28;20038;-68
2023/05/14 02:07:00;;;;;;;1999.90;999.90;;;;;;;;;;4972049;28;20042;-69
2023/05/14 02:09:26;;;;;;;1999.90;999.90;;;;;;;;;;4971856;28;20026;-69
2023/05/14 02:11:52;;;;;;;1999.90;999.90;;;;;;;;;;4971872;28;20105;-69
2023/05/14 02:14:18;;;;;;;1999.90;999.90;;;;;;;;;;4971718;28;20027;-69
2023/05/14 02:16:44;;;;;;;1999.90;999.90;;;;;;;;;;4971573;28;20105;-69
2023/05/14 02:19:10;;;;;;;1999.90;999.90;;;;;;;;;;4972052;28;20046;-66
2023/05/14 02:21:36;;;;;;;1999.90;999.90;;;;;;;;;;4971857;28;20482;-67
2023/05/14 02:24:02;;;;;;;1999.90;999.90;;;;;;;;;;4971948;28;20041;-69
2023/05/14 02:26:28;;;;;;;1999.90;999.90;;;;;;;;;;4971767;28;20045;-69
2023/05/14 02:28:54;;;;;;;1999.90;999.90;;;;;;;;;;4971505;28;20106;-67
2023/05/14 02:31:20;;;;;;;1999.90;999.90;;;;;;;;;;4971603;28;20098;-69
2023/05/14 02:33:46;;;;;;;1999.90;999.90;;;;;;;;;;4971669;28;20118;-67
2023/05/14 02:36:12;;;;;;;1999.90;999.90;;;;;;;;;;4971599;28;20110;-67
2023/05/14 02:38:38;;;;;;;1999.90;999.90;;;;;;;;;;4971491;28;20039;-69
2023/05/14 02:41:04;;;;;;;1999.90;999.90;;;;;;;;;;4971755;28;20027;-69
2023/05/14 02:43:30;;;;;;;1999.90;999.90;;;;;;;;;;4971463;28;20175;-67
2023/05/14 02:45:56;;;;;;;1999.90;999.90;;;;;;;;;;4971493;28;20113;-69
2023/05/14 02:48:23;;;;;;;1999.90;999.90;;;;;;;;;;4971446;28;20027;-69
2023/05/14 02:50:52;;;;;;;1999.90;999.90;;;;;;;;;;4971640;28;20037;-66
2023/05/14 02:53:18;;;;;;;1999.90;999.90;;;;;;;;;;4971548;28;20031;-69
2023/05/14 02:55:44;;;;;;;1999.90;999.90;;;;;;;;;;4971498;28;20379;-69
2023/05/14 02:58:10;;;;;;;1999.90;999.90;;;;;;;;;;4974556;28;20087;-68
2023/05/14 03:00:36;;;;;;;1999.90;999.90;;;;;;;;;;4974430;28;20146;-69
2023/05/14 03:03:02;;;;;;;1999.90;999.90;;;;;;;;;;4974889;28;20027;-68
2023/05/14 03:05:28;;;;;;;1999.90;999.90;;;;;;;;;;4974777;28;20030;-70
2023/05/14 03:07:54;;;;;;;1999.90;999.90;;;;;;;;;;4974636;28;20057;-70
2023/05/14 03:10:20;;;;;;;1999.90;999.90;;;;;;;;;;4974849;28;20528;-68
2023/05/14 03:12:46;;;;;;;1999.90;999.90;;;;;;;;;;4974719;28;20019;-67
2023/05/14 03:15:12;;;;;;;1999.90;999.90;;;;;;;;;;4974631;28;20471;-66
2023/05/14 03:17:38;;;;;;;1999.90;999.90;;;;;;;;;;4974540;28;20050;-68
2023/05/14 03:20:04;;;;;;;1999.90;999.90;;;;;;;;;;4974544;28;20023;-68
2023/05/14 03:22:31;;;;;;;1999.90;999.90;;;;;;;;;;4974688;28;20026;-68
2023/05/14 03:24:57;;;;;;;1999.90;999.90;;;;;;;;;;4974651;28;20105;-68
2023/05/14 03:27:23;;;;;;;1999.90;999.90;;;;;;;;;;4974378;28;20085;-68
2023/05/14 03:29:49;;;;;;;1999.90;999.90;;;;;;;;;;4974415;28;20023;-68
2023/05/14 03:32:15;;;;;;;1999.90;999.90;;;;;;;;;;4974194;28;20023;-68
2023/05/14 03:34:41;;;;;;;1999.90;999.90;;;;;;;;;;4974373;28;20031;-68
2023/05/14 03:37:07;;;;;;;1999.90;999.90;;;;;;;;;;4974148;28;20479;-68
2023/05/14 03:39:33;;;;;;;1999.90;999.90;;;;;;;;;;4974244;28;20109;-68
2023/05/14 03:41:59;;;;;;;1999.90;999.90;;;;;;;;;;4974220;28;20130;-67
2023/05/14 03:44:25;;;;;;;1999.90;999.90;;;;;;;;;;4974198;28;20035;-68
2023/05/14 03:46:51;;;;;;;1999.90;999.90;;;;;;;;;;4974032;28;20031;-68
2023/05/14 03:49:17;;;;;;;1999.90;999.90;;;;;;;;;;4993342;28;20077;-69
2023/05/14 03:51:43;;;;;;;1999.90;999.90;;;;;;;;;;4993438;28;20120;-69
2023/05/14 03:54:09;;;;;;;1999.90;999.90;;;;;;;;;;4993237;28;20049;-68
2023/05/14 03:56:36;;;;;;;1999.90;999.90;;;;;;;;;;4993155;28;20034;-68
2023/05/14 03:59:02;;;;;;;1999.90;999.90;;;;;;;;;;4993437;28;20062;-69
2023/05/14 04:01:28;;;;;;;1999.90;999.90;;;;;;;;;;4993081;28;20034;-69
2023/05/14 04:03:54;;;;;;;1999.90;999.90;;;;;;;;;;4993316;28;20429;-69
2023/05/14 04:06:20;;;;;;;1999.90;999.90;;;;;;;;;;4993106;28;20033;-69
2023/05/14 04:08:46;;;;;;;1999.90;999.90;;;;;;;;;;4992902;28;20038;-68
2023/05/14 04:11:12;;;;;;;1999.90;999.90;;;;;;;;;;4993358;28;20041;-69
2023/05/14 04:13:38;;;;;;;1999.90;999.90;;;;;;;;;;4992841;28;20030;-68
2023/05/14 04:16:04;;;;;;;1999.90;999.90;;;;;;;;;;4992884;28;20045;-68
2023/05/14 04:18:33;;;;;;;1999.90;999.90;;;;;;;;;;4992893;28;20035;-68
2023/05/14 04:20:59;;;;;;;1999.90;999.90;;;;;;;;;;4992967;28;20093;-68
2023/05/14 04:23:25;;;;;;;1999.90;999.90;;;;;;;;;;4992897;28;20391;-68
2023/05/14 04:25:51;;;;;;;1999.90;999.90;;;;;;;;;;4992856;28;20031;-68
2023/05/14 04:28:17;;;;;;;1999.90;999.90;;;;;;;;;;4992784;28;20045;-68
2023/05/14 04:30:44;;;;;;;1999.90;999.90;;;;;;;;;;4992731;28;20034;-67
2023/05/14 04:33:10;;;;;;;1999.90;999.90;;;;;;;;;;4992716;28;20045;-68
2023/05/14 04:35:36;;;;;;;1999.90;999.90;;;;;;;;;;4991856;28;20482;-68
2023/05/14 04:38:02;;;;;;;1999.90;999.90;;;;;;;;;;4992014;28;20118;-68
2023/05/14 04:40:30;;;;;;;1999.90;999.90;;;;;;;;;;4992700;28;20484;-68
2023/05/14 04:42:56;;;;;;;1999.90;999.90;;;;;;;;;;4992486;28;20029;-68
2023/05/14 04:45:22;;;;;;;1999.90;999.90;;;;;;;;;;4992390;28;20061;-68
2023/05/14 04:47:48;;;;;;;1999.90;999.90;;;;;;;;;;4975274;28;20037;-68
2023/05/14 04:50:14;;;;;;;1999.90;999.90;;;;;;;;;;4992505;28;20081;-68
2023/05/14 04:52:40;;;;;;;1999.90;999.90;;;;;;;;;;4992258;28;20027;-69
2023/05/14 04:55:07;;;;;;;1999.90;999.90;;;;;;;;;;4992472;28;20030;-69
2023/05/14 04:57:33;;;;;;;1999.90;999.90;;;;;;;;;;4991767;28;20073;-69
2023/05/14 05:00:04;;;;;;;1999.90;999.90;;;;;;;;;;4992259;28;20034;-69
2023/05/14 05:02:31;;;;;;;1999.90;999.90;;;;;;;;;;4992250;28;20490;-69
2023/05/14 05:04:57;;;;;;;1999.90;999.90;;;;;;;;;;4992244;28;20014;-69
2023/05/14 05:07:23;;;;;;;1999.90;999.90;;;;;;;;;;4991833;28;20018;-69
2023/05/14 05:09:49;;;;;;;1999.90;999.90;;;;;;;;;;4991998;28;20544;-70
2023/05/14 05:12:15;;;;;;;1999.90;999.90;;;;;;;;;;4991873;28;20070;-68
2023/05/14 05:14:41;;;;;;;1999.90;999.90;;;;;;;;;;4992050;28;20029;-69
2023/05/14 05:17:08;;;;;;;1999.90;999.90;;;;;;;;;;4991425;28;20046;-69
2023/05/14 05:19:34;;;;;;;1999.90;999.90;;;;;;;;;;4991209;28;20053;-68
2023/05/14 05:22:00;;;;;;;1999.90;999.90;;;;;;;;;;4991575;28;20113;-69
2023/05/14 05:24:26;;;;;;;1999.90;999.90;;;;;;;;;;4991797;28;20121;-68
2023/05/14 05:26:52;;;;;;;1999.90;999.90;;;;;;;;;;4991563;28;20573;-68
2023/05/14 05:29:18;;;;;;;1999.90;999.90;;;;;;;;;;4991836;28;20041;-69
2023/05/14 05:31:45;;;;;;;1999.90;999.90;;;;;;;;;;4991661;28;20030;-69
2023/05/14 05:34:11;;;;;;;1999.90;999.90;;;;;;;;;;4991832;28;20102;-69
2023/05/14 05:36:37;;;;;;;1999.90;999.90;;;;;;;;;;4991546;28;20058;-68
2023/05/14 05:39:04;;;;;;;1999.90;999.90;;;;;;;;;;4991156;28;20054;-69
2023/05/14 05:41:30;;;;;;;1999.90;999.90;;;;;;;;;;4970105;28;20035;-68
2023/05/14 05:43:56;;;;;;;1999.90;999.90;;;;;;;;;;4961966;28;20035;-68
2023/05/14 05:46:22;;;;;;;1999.90;999.90;;;;;;;;;;4961257;28;20019;-68
2023/05/14 05:48:48;;;;;;;1999.90;999.90;;;;;;;;;;4955523;28;20390;-68
2023/05/14 05:51:14;;;;;;;1999.90;999.90;;;;;;;;;;4952824;29;20054;-68
2023/05/14 05:53:40;;;;;;;1999.90;999.90;;;;;;;;;;4952823;29;20062;-68
2023/05/14 05:56:06;;;;;;;1999.90;999.90;;;;;;;;;;4952741;29;20042;-69
2023/05/14 05:58:32;;;;;;;1999.90;999.90;;;;;;;;;;4952476;29;20059;-68
2023/05/14 06:00:59;;;;;;;1999.90;999.90;;;;;;;;;;4952694;29;20027;-66
2023/05/14 06:03:25;;;;;;;1999.90;999.90;;;;;;;;;;4952777;29;20098;-70
2023/05/14 06:05:51;;;;;;;1999.90;999.90;;;;;;;;;;4958411;28;20027;-69
2023/05/14 06:08:18;;;;;;;1999.90;999.90;;;;;;;;;;4962047;28;20027;-68
2023/05/14 06:10:45;;;;;;;1999.90;999.90;;;;;;;;;;4962706;28;20111;-68
2023/05/14 06:13:11;;;;;;;1999.90;999.90;;;;;;;;;;4962757;28;20062;-67
2023/05/14 06:15:37;;;;;;;1999.90;999.90;;;;;;;;;;4955140;28;20471;-69
2023/05/14 06:18:03;;;;;;;1999.90;999.90;;;;;;;;;;4952162;29;20498;-68
2023/05/14 06:20:29;;;;;;;1999.90;999.90;;;;;;;;;;4953310;28;20162;-69
2023/05/14 06:22:55;;;;;;;1999.90;999.90;;;;;;;;;;4970559;28;20031;-68
2023/05/14 06:25:21;;;;;;;1999.90;999.90;;;;;;;;;;4970147;28;20023;-70
2023/05/14 06:27:47;;;;;;;1999.90;999.90;;;;;;;;;;4970424;28;20121;-70
2023/05/14 06:30:14;;;;;;;1999.90;999.90;;;;;;;;;;4971633;28;20026;-72
2023/05/14 06:32:40;;;;;;;1999.90;999.90;;;;;;;;;;4973994;28;20050;-67
2023/05/14 06:35:06;;;;;;;1999.90;999.90;;;;;;;;;;4974116;28;20019;-66
2023/05/14 06:37:32;;;;;;;1999.90;999.90;;;;;;;;;;4973863;28;20031;-66
2023/05/14 06:39:58;;;;;;;1999.90;999.90;;;;;;;;;;4974075;28;20097;-66
2023/05/14 06:42:25;;;;;;;1999.90;999.90;;;;;;;;;;4971259;28;20478;-66
2023/05/14 06:44:51;;;;;;;1999.90;999.90;;;;;;;;;;4973871;28;20085;-67
2023/05/14 06:47:17;;;;;;;1999.90;999.90;;;;;;;;;;4973816;28;20023;-69
2023/05/14 06:49:43;;;;;;;1999.90;999.90;;;;;;;;;;4973871;28;20026;-66
2023/05/14 06:52:12;;;;;;;1999.90;999.90;;;;;;;;;;4974303;28;20037;-69
2023/05/14 06:54:38;;;;;;;1999.90;999.90;;;;;;;;;;4975138;28;20034;-66
2023/05/14 06:57:05;;;;;;;1999.90;999.90;;;;;;;;;;4975172;28;20062;-68
2023/05/14 06:59:32;;;;;;;1999.90;999.90;;;;;;;;;;4969450;28;20490;-65
2023/05/14 07:01:58;;;;;;;1999.90;999.90;;;;;;;;;;4966049;28;20034;-69
2023/05/14 07:04:24;;;;;;;1999.90;999.90;;;;;;;;;;4965853;28;20488;-66
2023/05/14 07:06:50;;;;;;;1999.90;999.90;;;;;;;;;;4965156;28;20405;-68
2023/05/14 07:09:16;;;;;;;1999.90;999.90;;;;;;;;;;4967655;28;20030;-66
2023/05/14 07:11:43;;;;;;;1999.90;999.90;;;;;;;;;;4969515;28;20039;-67
2023/05/14 07:14:09;;;;;;;1999.90;999.90;;;;;;;;;;4961923;28;20437;-68
2023/05/14 07:16:35;;;;;;;1999.90;999.90;;;;;;;;;;4994190;28;20084;-65
2023/05/14 07:19:01;;;;;;;1999.90;999.90;;;;;;;;;;4985687;28;20031;-66
2023/05/14 07:21:27;;;;;;;1999.90;999.90;;;;;;;;;;4986594;28;20030;-68
2023/05/14 07:23:53;;;;;;;1999.90;999.90;;;;;;;;;;4993945;28;20490;-67
2023/05/14 07:26:20;;;;;;;1999.90;999.90;;;;;;;;;;4993826;28;20550;-68
2023/05/14 07:28:46;;;;;;;1999.90;999.90;;;;;;;;;;4993891;28;20057;-69
2023/05/14 07:31:12;;;;;;;1999.90;999.90;;;;;;;;;;4977829;28;20069;-71
2023/05/14 07:33:38;;;;;;;1999.90;999.90;;;;;;;;;;4986486;28;20026;-68
2023/05/14 07:36:04;;;;;;;1999.90;999.90;;;;;;;;;;4975204;28;20105;-69
2023/05/14 07:38:30;;;;;;;1999.90;999.90;;;;;;;;;;4962595;28;20119;-69
2023/05/14 07:40:57;;;;;;;1999.90;999.90;;;;;;;;;;4965196;28;20378;-67
2023/05/14 07:43:23;;;;;;;1999.90;999.90;;;;;;;;;;4970341;28;20023;-64
2023/05/14 07:45:49;;;;;;;1999.90;999.90;;;;;;;;;;4974102;28;20114;-65
2023/05/14 07:48:15;;;;;;;1999.90;999.90;;;;;;;;;;4973790;28;20031;-64
2023/05/14 07:50:41;;;;;;;1999.90;999.90;;;;;;;;;;4974385;28;20038;-64
2023/05/14 07:53:07;;;;;;;1999.90;999.90;;;;;;;;;;4973681;28;20034;-66
2023/05/14 07:55:33;;;;;;;1999.90;999.90;;;;;;;;;;4966835;28;20038;-64
2023/05/14 07:57:59;;;;;;;1999.90;999.90;;;;;;;;;;4962850;28;20059;-72
2023/05/14 08:00:25;;;;;;;1999.90;999.90;;;;;;;;;;4958920;28;20027;-66
2023/05/14 08:02:52;;;;;;;1999.90;999.90;;;;;;;;;;4945518;29;20495;-65
2023/05/14 08:05:18;;;;;;;1999.90;999.90;;;;;;;;;;4957008;28;20034;-65
2023/05/14 08:07:44;;;;;;;1999.90;999.90;;;;;;;;;;4944346;29;20477;-66
2023/05/14 08:10:10;;;;;;;1999.90;999.90;;;;;;;;;;4943987;29;20475;-63
2023/05/14 08:12:36;;;;;;;1999.90;999.90;;;;;;;;;;4942849;29;20031;-63
2023/05/14 08:15:02;;;;;;;1999.90;999.90;;;;;;;;;;4943431;29;20236;-63
2023/05/14 08:17:28;;;;;;;1999.90;999.90;;;;;;;;;;4949661;28;20054;-64
2023/05/14 08:19:54;;;;;;;1999.90;999.90;;;;;;;;;;4951735;28;20102;-67
2023/05/14 08:22:20;;;;;;;1999.90;999.90;;;;;;;;;;4944963;29;20055;-75
2023/05/14 08:24:47;;;;;;;1999.90;999.90;;;;;;;;;;4949040;29;20031;-74
2023/05/14 08:27:13;;;;;;;1999.90;999.90;;;;;;;;;;4934764;29;20042;-68
2023/05/14 08:29:39;;;;;;;1999.90;999.90;;;;;;;;;;4937640;29;20028;-74
2023/05/14 08:32:05;;;;;;;1999.90;999.90;;;;;;;;;;4953066;28;20034;-65
2023/05/14 08:34:31;;;;;;;1999.90;999.90;;;;;;;;;;4972859;28;20031;-81
2023/05/14 08:36:58;;;;;;;1999.90;999.90;;;;;;;;;;4972794;28;20039;-75
2023/05/14 08:39:24;;;;;;;1999.90;999.90;;;;;;;;;;4987713;28;20090;-70
2023/05/14 08:41:50;;;;;;;1999.90;999.90;;;;;;;;;;4973248;28;20073;-72
2023/05/14 08:44:20;;;;;;;1999.90;999.90;;;;;;;;;;4972451;28;20022;-72
2023/05/14 08:46:46;;;;;;;1999.90;999.90;;;;;;;;;;4972864;28;20031;-68
2023/05/14 08:49:18;;;;;;;1999.90;999.90;;;;;;;;;;4957274;28;20035;-72
2023/05/14 08:51:48;;;;;;;1999.90;999.90;;;;;;;;;;4953765;29;20435;-70
2023/05/14 08:54:17;;;;;;;1999.90;999.90;;;;;;;;;;4950890;28;20102;-70
2023/05/14 08:56:45;;;;;;;1999.90;999.90;;;;;;;;;;4945538;29;20474;-75
2023/05/14 08:59:11;;;;;;;1999.90;999.90;;;;;;;;;;4970792;28;20061;-73
2023/05/14 09:01:38;;;;;;;1999.90;999.90;;;;;;;;;;4963143;28;20122;-71
2023/05/14 09:04:07;;;;;;;1999.90;999.90;;;;;;;;;;4970968;28;20101;-69
2023/05/14 09:06:36;;;;;;;1999.90;999.90;;;;;;;;;;4970687;28;20529;-70
2023/05/14 09:09:03;;;;;;;1999.90;999.90;;;;;;;;;;4968908;28;20022;-70
2023/05/14 09:11:29;;;;;;;1999.90;999.90;;;;;;;;;;4970688;28;20019;-70
2023/05/14 09:13:55;;;;;;;1999.90;999.90;;;;;;;;;;4970979;28;20011;-70
2023/05/14 09:16:22;;;;;;;1999.90;999.90;;;;;;;;;;4970801;28;20045;-69
2023/05/14 09:18:48;;;;;;;1999.90;999.90;;;;;;;;;;4970655;28;20034;-72
2023/05/14 09:21:14;;;;;;;1999.90;999.90;;;;;;;;;;4970629;28;20145;-70
2023/05/14 09:23:44;;;;;;;1999.90;999.90;;;;;;;;;;4968394;28;20035;-68
2023/05/14 09:26:11;;;;;;;1999.90;999.90;;;;;;;;;;4970684;28;20062;-70
2023/05/14 09:28:40;;;;;;;1999.90;999.90;;;;;;;;;;4971031;28;20359;-70
2023/05/14 09:31:06;;;;;;;1999.90;999.90;;;;;;;;;;4969456;28;20541;-69
2023/05/14 09:33:32;;;;;;;1999.90;999.90;;;;;;;;;;4970389;28;20415;-69
2023/05/14 09:35:59;;;;;;;1999.90;999.90;;;;;;;;;;4970811;28;20039;-69
2023/05/14 09:38:32;;;;;;;1999.90;999.90;;;;;;;;;;4970751;28;20118;-71
2023/05/14 09:40:58;;;;;;;1999.90;999.90;;;;;;;;;;4969080;28;20114;-70
2023/05/14 09:43:25;;;;;;;1999.90;999.90;;;;;;;;;;4970781;28;20062;-69
2023/05/14 09:45:51;;;;;;;1999.90;999.90;;;;;;;;;;4970615;28;20030;-69
2023/05/14 09:48:17;;;;;;;1999.90;999.90;;;;;;;;;;4971328;28;20054;-76
2023/05/14 09:50:43;;;;;;;1999.90;999.90;;;;;;;;;;4971632;28;20064;-71
2023/05/14 09:53:10;;;;;;;1999.90;999.90;;;;;;;;;;4965029;28;20034;-70
2023/05/14 09:55:36;;;;;;;1999.90;999.90;;;;;;;;;;4960416;28;20078;-69
2023/05/14 09:58:02;;;;;;;1999.90;999.90;;;;;;;;;;4960588;28;20058;-69
2023/05/14 10:00:29;;;;;;;1999.90;999.90;;;;;;;;;;4962376;28;20027;-70
2023/05/14 10:02:57;;;;;;;1999.90;999.90;;;;;;;;;;4959883;28;20042;-69
2023/05/14 10:05:23;;;;;;;1999.90;999.90;;;;;;;;;;4961693;28;20014;-70
2023/05/14 10:07:50;;;;;;;1999.90;999.90;;;;;;;;;;4965617;28;20026;-70
2023/05/14 10:10:19;;;;;;;1999.90;999.90;;;;;;;;;;4964377;28;20122;-72
2023/05/14 10:12:49;;;;;;;1999.90;999.90;;;;;;;;;;4962364;28;20035;-70
2023/05/14 10:15:26;;;;;;;1999.90;999.90;;;;;;;;;;4964260;28;20028;-70
2023/05/14 10:17:55;;;;;;;1999.90;999.90;;;;;;;;;;4962114;28;20454;-70
2023/05/14 10:20:22;;;;;;;1999.90;999.90;;;;;;;;;;4963590;28;20027;-70
2023/05/14 10:22:48;;;;;;;1999.90;999.90;;;;;;;;;;4963728;28;20055;-70
2023/05/14 10:25:14;;;;;;;1999.90;999.90;;;;;;;;;;4963110;28;20047;-71
2023/05/14 10:27:41;;;;;;;1999.90;999.90;;;;;;;;;;4964363;28;20031;-71
2023/05/14 10:30:11;;;;;;;1999.90;999.90;;;;;;;;;;4965449;28;20106;-73
2023/05/14 10:32:38;;;;;;;1999.90;999.90;;;;;;;;;;4965688;28;20023;-70
2023/05/14 10:35:15;;;;;;;1999.90;999.90;;;;;;;;;;4966139;28;20031;-71
2023/05/14 10:37:41;;;;;;;1999.90;999.90;;;;;;;;;;4972116;28;20127;-71
2023/05/14 10:40:08;;;;;;;1999.90;999.90;;;;;;;;;;4961921;28;20031;-73
2023/05/14 10:42:38;;;;;;;1999.90;999.90;;;;;;;;;;4963320;28;20380;-71
2023/05/14 10:45:07;;;;;;;1999.90;999.90;;;;;;;;;;4955918;28;20070;-72
2023/05/14 10:47:33;;;;;;;1999.90;999.90;;;;;;;;;;4963590;28;20037;-72
2023/05/14 10:50:02;;;;;;;1999.90;999.90;;;;;;;;;;4955081;28;20022;-70
2023/05/14 10:52:29;;;;;;;1999.90;999.90;;;;;;;;;;4970841;28;20394;-70
2023/05/14 10:54:56;;;;;;;1999.90;999.90;;;;;;;;;;4957167;28;20046;-70
2023/05/14 10:57:23;;;;;;;1999.90;999.90;;;;;;;;;;4966209;28;20379;-71
2023/05/14 10:59:53;;;;;;;1999.90;999.90;;;;;;;;;;4972276;28;20113;-71
2023/05/14 11:02:28;;;;;;;1999.90;999.90;;;;;;;;;;4973323;28;20061;-70
2023/05/14 11:04:57;;;;;;;1999.90;999.90;;;;;;;;;;4971554;28;20105;-70
2023/05/14 11:07:24;;;;;;;1999.90;999.90;;;;;;;;;;4970623;28;20030;-70
2023/05/14 11:09:51;;;;;;;1999.90;999.90;;;;;;;;;;4962444;28;20058;-69
2023/05/14 11:12:18;;;;;;;1999.90;999.90;;;;;;;;;;4965936;28;20134;-70
2023/05/14 11:14:44;;;;;;;1999.90;999.90;;;;;;;;;;4973261;28;20030;-70
2023/05/14 11:17:11;;;;;;;1999.90;999.90;;;;;;;;;;4962382;28;20185;-71
2023/05/14 11:19:37;;;;;;;1999.90;999.90;;;;;;;;;;4962467;28;20456;-72
2023/05/14 11:22:03;;;;;;;1999.90;999.90;;;;;;;;;;4959535;28;20525;-72
2023/05/14 11:24:29;;;;;;;1999.90;999.90;;;;;;;;;;4969624;28;20025;-70
2023/05/14 11:26:55;;;;;;;1999.90;999.90;;;;;;;;;;4965279;28;20039;-68
2023/05/14 11:29:22;;;;;;;1999.90;999.90;;;;;;;;;;4969460;28;20031;-75
2023/05/14 11:31:49;;;;;;;1999.90;999.90;;;;;;;;;;4961327;28;20560;-69
2023/05/14 11:34:15;;;;;;;1999.90;999.90;;;;;;;;;;4964230;28;20382;-78
2023/05/14 11:36:42;;;;;;;1999.90;999.90;;;;;;;;;;4963759;28;20478;-73
2023/05/14 11:39:08;;;;;;;1999.90;999.90;;;;;;;;;;4959040;28;20027;-79
2023/05/14 11:41:34;;;;;;;1999.90;999.90;;;;;;;;;;4955110;29;20023;-75
2023/05/14 11:44:00;;;;;;;1999.90;999.90;;;;;;;;;;4963410;28;20030;-69
2023/05/14 11:46:28;;;;;;;1999.90;999.90;;;;;;;;;;4964669;28;20554;-75
2023/05/14 11:48:54;;;;;;;1999.90;999.90;;;;;;;;;;4961804;28;20035;-71
2023/05/14 11:51:21;;;;;;;1999.90;999.90;;;;;;;;;;4970401;28;20042;-71
2023/05/14 11:53:47;;;;;;;1999.90;999.90;;;;;;;;;;4973429;28;20117;-70
2023/05/14 11:56:14;;;;;;;1999.90;999.90;;;;;;;;;;4974145;28;20150;-75
2023/05/14 11:58:40;;;;;;;1999.90;999.90;;;;;;;;;;4973033;28;20054;-80
2023/05/14 12:01:06;;;;;;;1999.90;999.90;;;;;;;;;;4971307;28;20019;-74
2023/05/14 12:03:32;;;;;;;1999.90;999.90;;;;;;;;;;4969364;28;20038;-72
2023/05/14 12:05:59;;;;;;;1999.90;999.90;;;;;;;;;;4970386;28;20561;-72
2023/05/14 12:08:32;;;;;;;1999.90;999.90;;;;;;;;;;4973431;28;20035;-74
2023/05/14 12:10:59;;;;;;;1999.90;999.90;;;;;;;;;;4971585;28;20026;-73
2023/05/14 12:13:29;;;;;;;1999.90;999.90;;;;;;;;;;4972693;28;20033;-71
2023/05/14 12:16:01;;;;;;;1999.90;999.90;;;;;;;;;;4973131;28;20023;-74
2023/05/14 12:18:28;;;;;;;1999.90;999.90;;;;;;;;;;4971945;28;20459;-75
2023/05/14 12:20:54;;;;;;;1999.90;999.90;;;;;;;;;;4973329;28;20516;-69
2023/05/14 12:23:26;;;;;;;1999.90;999.90;;;;;;;;;;4973628;28;20392;-65
2023/05/14 12:25:52;;;;;;;1999.90;999.90;;;;;;;;;;4973212;28;20026;-68
2023/05/14 12:28:20;;;;;;;1999.90;999.90;;;;;;;;;;4973009;28;20525;-80
2023/05/14 12:30:46;;;;;;;1999.90;999.90;;;;;;;;;;4972158;28;20156;-74
2023/05/14 12:33:13;;;;;;;1999.90;999.90;;;;;;;;;;4972813;28;20022;-80
2023/05/14 12:35:39;;;;;;;1999.90;999.90;;;;;;;;;;4972975;28;20074;-66
2023/05/14 12:38:05;;;;;;;1999.90;999.90;;;;;;;;;;4973102;28;20043;-65
2023/05/14 12:40:32;;;;;;;1999.90;999.90;;;;;;;;;;4972370;28;20086;-66
2023/05/14 12:42:58;;;;;;;1999.90;999.90;;;;;;;;;;4972899;28;20125;-65
2023/05/14 12:45:24;;;;;;;1999.90;999.90;;;;;;;;;;4972690;28;20053;-65
2023/05/14 12:47:50;;;;;;;1999.90;999.90;;;;;;;;;;4973241;28;20038;-61
2023/05/14 12:50:16;;;;;;;1999.90;999.90;;;;;;;;;;4973739;28;20115;-68
2023/05/14 12:52:43;;;;;;;1999.90;999.90;;;;;;;;;;4974707;28;20030;-73
2023/05/14 12:55:12;;;;;;;1999.90;999.90;;;;;;;;;;4976019;28;20528;-63
2023/05/14 12:57:38;;;;;;;1999.90;999.90;;;;;;;;;;4972472;28;20106;-62
2023/05/14 13:00:06;;;;;;;1999.90;999.90;;;;;;;;;;4972696;28;20482;-63
2023/05/14 13:02:32;;;;;;;1999.90;999.90;;;;;;;;;;4972730;28;20031;-63
2023/05/14 13:05:01;;;;;;;1999.90;999.90;;;;;;;;;;4972716;28;20026;-63
2023/05/14 13:07:28;;;;;;;1999.90;999.90;;;;;;;;;;4972267;28;20375;-70
2023/05/14 13:09:55;;;;;;;1999.90;999.90;;;;;;;;;;4972445;28;20181;-76
2023/05/14 13:12:21;;;;;;;1999.90;999.90;;;;;;;;;;4972563;28;20031;-63
2023/05/14 13:14:47;;;;;;;1999.90;999.90;;;;;;;;;;4972570;28;20060;-80
2023/05/14 13:17:13;;;;;;;1999.90;999.90;;;;;;;;;;4972577;28;20035;-62
2023/05/14 13:19:39;;;;;;;1999.90;999.90;;;;;;;;;;4972498;28;20037;-63
2023/05/14 13:22:05;;;;;;;1999.90;999.90;;;;;;;;;;4978874;28;20065;-62
2023/05/14 13:24:31;;;;;;;1999.90;999.90;;;;;;;;;;4991627;28;20390;-64
2023/05/14 13:26:57;;;;;;;1999.90;999.90;;;;;;;;;;4990432;28;20034;-65
2023/05/14 13:29:23;;;;;;;1999.90;999.90;;;;;;;;;;4988746;28;20042;-61
2023/05/14 13:31:49;;;;;;;1999.90;999.90;;;;;;;;;;4972532;28;20102;-63
2023/05/14 13:34:15;;;;;;;1999.90;999.90;;;;;;;;;;4972382;28;20038;-82
2023/05/14 13:36:42;;;;;;;1999.90;999.90;;;;;;;;;;4972180;28;20030;-66
2023/05/14 13:39:10;;;;;;;1999.90;999.90;;;;;;;;;;4971912;28;20034;-63